sensor_id;sensor_type;location;lat;lon;timestamp;P1;durP1;ratioP1;P2;durP2;ratioP2
74957;SDS011;63516;42.624;26.276;2022-09-21T00:01:17;1.85;;;1.05;;
74957;SDS011;63516;42.624;26.276;2022-09-21T00:03:44;1.77;;;1.10;;
74957;SDS011;63516;42.624;26.276;2022-09-21T00:06:13;1.85;;;1.00;;
74957;SDS011;63516;42.624;26.276;2022-09-21T00:08:42;1.88;;;1.20;;
74957;SDS011;63516;42.624;26.276;2022-09-21T00:11:15;2.42;;;1.05;;
74957;SDS011;63516;42.624;26.276;2022-09-21T00:13:44;2.25;;;1.08;;
74957;SDS011;63516;42.624;26.276;2022-09-21T00:16:13;3.33;;;1.08;;
74957;SDS011;63516;42.624;26.276;2022-09-21T00:18:41;2.78;;;1.13;;
74957;SDS011;63516;42.624;26.276;2022-09-21T00:21:09;3.38;;;1.10;;
74957;SDS011;63516;42.624;26.276;2022-09-21T00:23:37;2.10;;;1.10;;
74957;SDS011;63516;42.624;26.276;2022-09-21T00:26:09;1.70;;;1.20;;
74957;SDS011;63516;42.624;26.276;2022-09-21T00:28:40;1.90;;;1.20;;
74957;SDS011;63516;42.624;26.276;2022-09-21T00:31:08;1.70;;;1.10;;
74957;SDS011;63516;42.624;26.276;2022-09-21T00:33:38;5.53;;;1.40;;
74957;SDS011;63516;42.624;26.276;2022-09-21T00:36:07;2.92;;;1.30;;
74957;SDS011;63516;42.624;26.276;2022-09-21T00:38:36;2.63;;;1.33;;
74957;SDS011;63516;42.624;26.276;2022-09-21T00:41:03;1.75;;;1.17;;
74957;SDS011;63516;42.624;26.276;2022-09-21T00:46:36;2.47;;;1.20;;
74957;SDS011;63516;42.624;26.276;2022-09-21T00:49:05;2.03;;;1.23;;
74957;SDS011;63516;42.624;26.276;2022-09-21T00:51:33;2.85;;;1.30;;
74957;SDS011;63516;42.624;26.276;2022-09-21T00:54:01;3.63;;;1.40;;
74957;SDS011;63516;42.624;26.276;2022-09-21T00:59:00;2.05;;;1.30;;
74957;SDS011;63516;42.624;26.276;2022-09-21T01:01:28;2.60;;;1.10;;
74957;SDS011;63516;42.624;26.276;2022-09-21T01:03:56;5.72;;;1.60;;
74957;SDS011;63516;42.624;26.276;2022-09-21T01:06:23;3.47;;;1.60;;
74957;SDS011;63516;42.624;26.276;2022-09-21T01:08:52;3.95;;;1.80;;
74957;SDS011;63516;42.624;26.276;2022-09-21T01:17:07;3.95;;;1.35;;
74957;SDS011;63516;42.624;26.276;2022-09-21T01:28:03;1.85;;;1.13;;
74957;SDS011;63516;42.624;26.276;2022-09-21T01:30:40;2.20;;;1.33;;
74957;SDS011;63516;42.624;26.276;2022-09-21T01:33:15;2.97;;;1.38;;
74957;SDS011;63516;42.624;26.276;2022-09-21T01:35:49;3.17;;;1.30;;
74957;SDS011;63516;42.624;26.276;2022-09-21T01:38:23;2.13;;;1.30;;
74957;SDS011;63516;42.624;26.276;2022-09-21T01:40:54;2.53;;;1.30;;
74957;SDS011;63516;42.624;26.276;2022-09-21T01:43:26;2.17;;;1.20;;
74957;SDS011;63516;42.624;26.276;2022-09-21T01:45:57;2.45;;;1.35;;
74957;SDS011;63516;42.624;26.276;2022-09-21T01:48:31;2.13;;;1.27;;
74957;SDS011;63516;42.624;26.276;2022-09-21T01:51:02;2.17;;;1.15;;
74957;SDS011;63516;42.624;26.276;2022-09-21T01:54:17;2.47;;;1.38;;
74957;SDS011;63516;42.624;26.276;2022-09-21T01:56:40;3.78;;;1.33;;
74957;SDS011;63516;42.624;26.276;2022-09-21T02:01:57;2.95;;;1.20;;
74957;SDS011;63516;42.624;26.276;2022-09-21T02:06:55;4.03;;;1.33;;
74957;SDS011;63516;42.624;26.276;2022-09-21T02:09:22;2.58;;;1.42;;
74957;SDS011;63516;42.624;26.276;2022-09-21T02:11:50;2.08;;;1.23;;
74957;SDS011;63516;42.624;26.276;2022-09-21T02:14:19;4.07;;;1.40;;
74957;SDS011;63516;42.624;26.276;2022-09-21T02:16:52;2.05;;;1.10;;
74957;SDS011;63516;42.624;26.276;2022-09-21T02:19:52;2.22;;;1.30;;
74957;SDS011;63516;42.624;26.276;2022-09-21T02:25:06;5.30;;;1.40;;
74957;SDS011;63516;42.624;26.276;2022-09-21T02:27:38;3.45;;;1.40;;
74957;SDS011;63516;42.624;26.276;2022-09-21T02:33:05;3.13;;;1.30;;
74957;SDS011;63516;42.624;26.276;2022-09-21T02:36:05;4.68;;;1.50;;
74957;SDS011;63516;42.624;26.276;2022-09-21T02:38:39;2.90;;;1.50;;
74957;SDS011;63516;42.624;26.276;2022-09-21T02:41:21;3.70;;;1.55;;
74957;SDS011;63516;42.624;26.276;2022-09-21T02:43:59;2.78;;;1.45;;
74957;SDS011;63516;42.624;26.276;2022-09-21T02:46:34;6.22;;;2.13;;
74957;SDS011;63516;42.624;26.276;2022-09-21T02:49:06;4.68;;;1.50;;
74957;SDS011;63516;42.624;26.276;2022-09-21T02:51:39;3.67;;;1.35;;
74957;SDS011;63516;42.624;26.276;2022-09-21T02:54:10;2.58;;;1.40;;
74957;SDS011;63516;42.624;26.276;2022-09-21T02:56:39;2.10;;;1.40;;
74957;SDS011;63516;42.624;26.276;2022-09-21T02:59:08;2.08;;;1.45;;
74957;SDS011;63516;42.624;26.276;2022-09-21T03:01:36;5.70;;;1.67;;
74957;SDS011;63516;42.624;26.276;2022-09-21T03:04:05;14.25;;;2.05;;
74957;SDS011;63516;42.624;26.276;2022-09-21T03:06:32;10.27;;;1.95;;
74957;SDS011;63516;42.624;26.276;2022-09-21T03:08:59;4.88;;;1.70;;
74957;SDS011;63516;42.624;26.276;2022-09-21T03:11:26;2.28;;;1.42;;
74957;SDS011;63516;42.624;26.276;2022-09-21T03:13:53;3.42;;;1.60;;
74957;SDS011;63516;42.624;26.276;2022-09-21T03:16:20;2.88;;;1.63;;
74957;SDS011;63516;42.624;26.276;2022-09-21T03:18:48;5.57;;;1.70;;
74957;SDS011;63516;42.624;26.276;2022-09-21T03:21:15;2.80;;;1.50;;
74957;SDS011;63516;42.624;26.276;2022-09-21T03:23:42;3.65;;;1.40;;
74957;SDS011;63516;42.624;26.276;2022-09-21T03:26:09;2.65;;;1.40;;
74957;SDS011;63516;42.624;26.276;2022-09-21T03:28:35;2.67;;;1.45;;
74957;SDS011;63516;42.624;26.276;2022-09-21T03:31:02;3.03;;;1.35;;
74957;SDS011;63516;42.624;26.276;2022-09-21T03:33:29;2.80;;;1.30;;
74957;SDS011;63516;42.624;26.276;2022-09-21T03:35:57;7.05;;;1.40;;
74957;SDS011;63516;42.624;26.276;2022-09-21T03:38:23;2.40;;;1.45;;
74957;SDS011;63516;42.624;26.276;2022-09-21T03:40:52;2.80;;;1.63;;
74957;SDS011;63516;42.624;26.276;2022-09-21T03:43:23;9.77;;;2.25;;
74957;SDS011;63516;42.624;26.276;2022-09-21T03:45:51;4.85;;;1.95;;
74957;SDS011;63516;42.624;26.276;2022-09-21T03:48:18;7.60;;;1.90;;
74957;SDS011;63516;42.624;26.276;2022-09-21T03:50:46;6.88;;;2.20;;
74957;SDS011;63516;42.624;26.276;2022-09-21T03:53:14;7.72;;;2.25;;
74957;SDS011;63516;42.624;26.276;2022-09-21T03:55:41;6.20;;;1.77;;
74957;SDS011;63516;42.624;26.276;2022-09-21T03:58:08;7.60;;;1.75;;
74957;SDS011;63516;42.624;26.276;2022-09-21T04:00:36;11.75;;;2.83;;
74957;SDS011;63516;42.624;26.276;2022-09-21T04:03:04;4.90;;;1.85;;
74957;SDS011;63516;42.624;26.276;2022-09-21T04:05:31;9.82;;;2.08;;
74957;SDS011;63516;42.624;26.276;2022-09-21T04:07:58;3.95;;;1.52;;
74957;SDS011;63516;42.624;26.276;2022-09-21T04:10:27;10.95;;;2.03;;
74957;SDS011;63516;42.624;26.276;2022-09-21T04:13:01;4.88;;;2.20;;
74957;SDS011;63516;42.624;26.276;2022-09-21T04:15:29;4.30;;;2.15;;
74957;SDS011;63516;42.624;26.276;2022-09-21T04:17:57;17.35;;;2.90;;
74957;SDS011;63516;42.624;26.276;2022-09-21T04:20:24;8.35;;;2.40;;
74957;SDS011;63516;42.624;26.276;2022-09-21T04:22:51;11.57;;;2.85;;
74957;SDS011;63516;42.624;26.276;2022-09-21T04:25:18;16.85;;;3.33;;
74957;SDS011;63516;42.624;26.276;2022-09-21T04:27:46;8.40;;;2.20;;
74957;SDS011;63516;42.624;26.276;2022-09-21T04:30:14;5.82;;;2.00;;
74957;SDS011;63516;42.624;26.276;2022-09-21T04:32:41;7.95;;;2.20;;
74957;SDS011;63516;42.624;26.276;2022-09-21T04:35:09;3.90;;;2.00;;
74957;SDS011;63516;42.624;26.276;2022-09-21T04:37:36;7.55;;;3.05;;
74957;SDS011;63516;42.624;26.276;2022-09-21T04:40:03;18.00;;;2.33;;
74957;SDS011;63516;42.624;26.276;2022-09-21T04:42:31;20.90;;;2.75;;
74957;SDS011;63516;42.624;26.276;2022-09-21T04:44:58;21.27;;;2.65;;
74957;SDS011;63516;42.624;26.276;2022-09-21T04:47:25;19.65;;;3.78;;
74957;SDS011;63516;42.624;26.276;2022-09-21T04:49:51;33.08;;;4.03;;
74957;SDS011;63516;42.624;26.276;2022-09-21T04:52:18;11.95;;;2.50;;
74957;SDS011;63516;42.624;26.276;2022-09-21T04:54:46;31.60;;;4.03;;
74957;SDS011;63516;42.624;26.276;2022-09-21T04:57:13;17.75;;;2.53;;
74957;SDS011;63516;42.624;26.276;2022-09-21T04:59:40;39.10;;;3.80;;
74957;SDS011;63516;42.624;26.276;2022-09-21T05:02:07;15.70;;;2.58;;
74957;SDS011;63516;42.624;26.276;2022-09-21T05:04:34;21.35;;;2.97;;
74957;SDS011;63516;42.624;26.276;2022-09-21T05:07:01;7.68;;;2.70;;
74957;SDS011;63516;42.624;26.276;2022-09-21T05:09:28;3.88;;;1.70;;
74957;SDS011;63516;42.624;26.276;2022-09-21T05:12:13;13.65;;;2.00;;
74957;SDS011;63516;42.624;26.276;2022-09-21T05:14:40;6.10;;;1.60;;
74957;SDS011;63516;42.624;26.276;2022-09-21T05:17:10;13.75;;;2.08;;
74957;SDS011;63516;42.624;26.276;2022-09-21T05:19:37;20.88;;;2.50;;
74957;SDS011;63516;42.624;26.276;2022-09-21T05:22:04;9.88;;;3.35;;
74957;SDS011;63516;42.624;26.276;2022-09-21T05:24:31;17.48;;;2.65;;
74957;SDS011;63516;42.624;26.276;2022-09-21T05:26:58;10.60;;;3.10;;
74957;SDS011;63516;42.624;26.276;2022-09-21T05:29:25;11.35;;;4.57;;
74957;SDS011;63516;42.624;26.276;2022-09-21T05:31:54;10.77;;;4.40;;
74957;SDS011;63516;42.624;26.276;2022-09-21T05:39:42;4.70;;;2.20;;
74957;SDS011;63516;42.624;26.276;2022-09-21T05:42:10;19.00;;;1.70;;
74957;SDS011;63516;42.624;26.276;2022-09-21T05:44:37;4.68;;;1.70;;
74957;SDS011;63516;42.624;26.276;2022-09-21T05:47:10;7.10;;;2.00;;
74957;SDS011;63516;42.624;26.276;2022-09-21T05:50:04;14.18;;;1.20;;
74957;SDS011;63516;42.624;26.276;2022-09-21T05:52:41;3.63;;;0.90;;
74957;SDS011;63516;42.624;26.276;2022-09-21T06:03:49;4.45;;;1.02;;
74957;SDS011;63516;42.624;26.276;2022-09-21T06:06:17;2.42;;;0.82;;
74957;SDS011;63516;42.624;26.276;2022-09-21T06:08:44;2.75;;;0.82;;
74957;SDS011;63516;42.624;26.276;2022-09-21T06:11:11;4.63;;;0.90;;
74957;SDS011;63516;42.624;26.276;2022-09-21T06:13:39;2.67;;;0.95;;
74957;SDS011;63516;42.624;26.276;2022-09-21T06:16:06;6.35;;;1.00;;
74957;SDS011;63516;42.624;26.276;2022-09-21T06:18:37;15.20;;;1.63;;
74957;SDS011;63516;42.624;26.276;2022-09-21T06:21:05;2.80;;;0.68;;
74957;SDS011;63516;42.624;26.276;2022-09-21T06:23:33;2.92;;;0.80;;
74957;SDS011;63516;42.624;26.276;2022-09-21T06:26:00;4.57;;;0.70;;
74957;SDS011;63516;42.624;26.276;2022-09-21T06:28:27;5.63;;;0.77;;
74957;SDS011;63516;42.624;26.276;2022-09-21T06:30:55;5.53;;;0.80;;
74957;SDS011;63516;42.624;26.276;2022-09-21T06:33:23;11.45;;;1.10;;
74957;SDS011;63516;42.624;26.276;2022-09-21T06:35:54;4.72;;;0.60;;
74957;SDS011;63516;42.624;26.276;2022-09-21T06:51:04;44.67;;;3.70;;
74957;SDS011;63516;42.624;26.276;2022-09-21T06:53:31;34.20;;;2.55;;
74957;SDS011;63516;42.624;26.276;2022-09-21T06:55:59;49.30;;;3.15;;
74957;SDS011;63516;42.624;26.276;2022-09-21T06:58:28;39.58;;;3.17;;
74957;SDS011;63516;42.624;26.276;2022-09-21T07:00:54;29.85;;;2.15;;
74957;SDS011;63516;42.624;26.276;2022-09-21T07:03:21;35.50;;;2.45;;
74957;SDS011;63516;42.624;26.276;2022-09-21T07:05:48;35.22;;;2.92;;
74957;SDS011;63516;42.624;26.276;2022-09-21T07:08:44;58.22;;;4.60;;
74957;SDS011;63516;42.624;26.276;2022-09-21T07:11:31;38.30;;;2.80;;
74957;SDS011;63516;42.624;26.276;2022-09-21T07:13:58;35.90;;;2.28;;
74957;SDS011;63516;42.624;26.276;2022-09-21T07:20:56;18.60;;;1.45;;
74957;SDS011;63516;42.624;26.276;2022-09-21T07:23:23;13.48;;;1.40;;
74957;SDS011;63516;42.624;26.276;2022-09-21T07:25:50;15.38;;;1.60;;
74957;SDS011;63516;42.624;26.276;2022-09-21T07:28:17;15.23;;;1.20;;
74957;SDS011;63516;42.624;26.276;2022-09-21T07:30:45;13.20;;;1.70;;
74957;SDS011;63516;42.624;26.276;2022-09-21T07:33:12;21.25;;;1.52;;
74957;SDS011;63516;42.624;26.276;2022-09-21T07:35:38;13.88;;;1.25;;
74957;SDS011;63516;42.624;26.276;2022-09-21T07:38:06;15.95;;;1.30;;
74957;SDS011;63516;42.624;26.276;2022-09-21T07:40:34;20.58;;;1.23;;
74957;SDS011;63516;42.624;26.276;2022-09-21T07:43:01;15.68;;;1.30;;
74957;SDS011;63516;42.624;26.276;2022-09-21T07:45:28;37.63;;;2.45;;
74957;SDS011;63516;42.624;26.276;2022-09-21T07:48:05;27.52;;;1.88;;
74957;SDS011;63516;42.624;26.276;2022-09-21T07:50:34;26.02;;;2.05;;
74957;SDS011;63516;42.624;26.276;2022-09-21T07:53:01;20.35;;;1.52;;
74957;SDS011;63516;42.624;26.276;2022-09-21T07:55:29;12.15;;;1.00;;
74957;SDS011;63516;42.624;26.276;2022-09-21T07:57:56;17.52;;;1.33;;
74957;SDS011;63516;42.624;26.276;2022-09-21T08:00:42;13.88;;;1.55;;
74957;SDS011;63516;42.624;26.276;2022-09-21T08:03:09;11.18;;;1.02;;
74957;SDS011;63516;42.624;26.276;2022-09-21T09:23:57;4.72;;;0.40;;
74957;SDS011;63516;42.624;26.276;2022-09-21T09:28:54;9.48;;;0.60;;
74957;SDS011;63516;42.624;26.276;2022-09-21T09:36:16;3.33;;;0.43;;
74957;SDS011;63516;42.624;26.276;2022-09-21T09:39:21;1.70;;;0.40;;
74957;SDS011;63516;42.624;26.276;2022-09-21T09:48:45;1.23;;;0.20;;
74957;SDS011;63516;42.624;26.276;2022-09-21T09:51:28;6.85;;;0.88;;
74957;SDS011;63516;42.624;26.276;2022-09-21T09:53:55;5.95;;;0.80;;
74957;SDS011;63516;42.624;26.276;2022-09-21T09:56:25;1.85;;;0.32;;
74957;SDS011;63516;42.624;26.276;2022-09-21T09:58:53;38.30;;;1.92;;
74957;SDS011;63516;42.624;26.276;2022-09-21T10:04:15;4.35;;;0.52;;
74957;SDS011;63516;42.624;26.276;2022-09-21T10:06:43;12.27;;;0.88;;
74957;SDS011;63516;42.624;26.276;2022-09-21T10:11:51;2.72;;;0.75;;
74957;SDS011;63516;42.624;26.276;2022-09-21T10:14:21;3.28;;;0.60;;
74957;SDS011;63516;42.624;26.276;2022-09-21T10:16:51;5.38;;;0.77;;
74957;SDS011;63516;42.624;26.276;2022-09-21T10:19:23;6.72;;;0.80;;
74957;SDS011;63516;42.624;26.276;2022-09-21T10:22:01;5.78;;;0.60;;
74957;SDS011;63516;42.624;26.276;2022-09-21T10:24:34;2.63;;;0.47;;
74957;SDS011;63516;42.624;26.276;2022-09-21T10:27:12;2.08;;;0.75;;
74957;SDS011;63516;42.624;26.276;2022-09-21T10:29:46;3.95;;;0.63;;
74957;SDS011;63516;42.624;26.276;2022-09-21T10:37:42;4.00;;;0.60;;
74957;SDS011;63516;42.624;26.276;2022-09-21T10:42:45;4.13;;;0.70;;
74957;SDS011;63516;42.624;26.276;2022-09-21T10:47:49;0.88;;;0.40;;
74957;SDS011;63516;42.624;26.276;2022-09-21T10:52:57;3.80;;;0.50;;
74957;SDS011;63516;42.624;26.276;2022-09-21T10:55:26;2.95;;;0.50;;
74957;SDS011;63516;42.624;26.276;2022-09-21T10:57:55;3.53;;;0.63;;
74957;SDS011;63516;42.624;26.276;2022-09-21T11:02:50;5.57;;;0.70;;
74957;SDS011;63516;42.624;26.276;2022-09-21T11:05:22;5.28;;;0.77;;
74957;SDS011;63516;42.624;26.276;2022-09-21T11:07:57;2.97;;;0.40;;
74957;SDS011;63516;42.624;26.276;2022-09-21T11:13:38;2.95;;;0.50;;
74957;SDS011;63516;42.624;26.276;2022-09-21T11:18:48;0.47;;;0.40;;
74957;SDS011;63516;42.624;26.276;2022-09-21T11:26:55;7.10;;;0.70;;
74957;SDS011;63516;42.624;26.276;2022-09-21T11:29:36;3.13;;;0.68;;
74957;SDS011;63516;42.624;26.276;2022-09-21T11:32:20;5.07;;;0.82;;
74957;SDS011;63516;42.624;26.276;2022-09-21T11:34:59;17.15;;;1.40;;
74957;SDS011;63516;42.624;26.276;2022-09-21T11:37:55;4.95;;;0.73;;
74957;SDS011;63516;42.624;26.276;2022-09-21T11:43:36;5.10;;;0.70;;
74957;SDS011;63516;42.624;26.276;2022-09-21T11:46:23;0.70;;;0.50;;
74957;SDS011;63516;42.624;26.276;2022-09-21T11:57:40;9.00;;;0.88;;
74957;SDS011;63516;42.624;26.276;2022-09-21T12:00:09;3.95;;;0.70;;
74957;SDS011;63516;42.624;26.276;2022-09-21T12:05:52;5.47;;;0.70;;
74957;SDS011;63516;42.624;26.276;2022-09-21T12:11:42;6.13;;;0.95;;
74957;SDS011;63516;42.624;26.276;2022-09-21T12:14:14;5.15;;;0.70;;
74957;SDS011;63516;42.624;26.276;2022-09-21T12:22:27;16.73;;;1.15;;
74957;SDS011;63516;42.624;26.276;2022-09-21T12:25:04;1.13;;;0.40;;
74957;SDS011;63516;42.624;26.276;2022-09-21T12:27:40;9.35;;;0.95;;
74957;SDS011;63516;42.624;26.276;2022-09-21T12:30:14;6.80;;;0.90;;
74957;SDS011;63516;42.624;26.276;2022-09-21T12:35:20;6.25;;;0.70;;
74957;SDS011;63516;42.624;26.276;2022-09-21T12:37:56;11.60;;;1.15;;
74957;SDS011;63516;42.624;26.276;2022-09-21T12:45:47;5.85;;;1.08;;
74957;SDS011;63516;42.624;26.276;2022-09-21T12:48:23;7.20;;;0.88;;
74957;SDS011;63516;42.624;26.276;2022-09-21T12:51:16;9.45;;;1.25;;
74957;SDS011;63516;42.624;26.276;2022-09-21T12:53:47;5.18;;;1.00;;
74957;SDS011;63516;42.624;26.276;2022-09-21T12:58:54;5.45;;;0.47;;
74957;SDS011;63516;42.624;26.276;2022-09-21T13:01:33;2.05;;;0.52;;
74957;SDS011;63516;42.624;26.276;2022-09-21T13:09:19;14.38;;;1.48;;
74957;SDS011;63516;42.624;26.276;2022-09-21T13:11:53;1.58;;;0.40;;
74957;SDS011;63516;42.624;26.276;2022-09-21T13:14:23;5.03;;;0.60;;
74957;SDS011;63516;42.624;26.276;2022-09-21T13:16:54;9.52;;;0.70;;
74957;SDS011;63516;42.624;26.276;2022-09-21T13:19:24;5.28;;;0.88;;
74957;SDS011;63516;42.624;26.276;2022-09-21T13:24:39;6.82;;;0.50;;
74957;SDS011;63516;42.624;26.276;2022-09-21T13:27:08;12.50;;;1.10;;
74957;SDS011;63516;42.624;26.276;2022-09-21T13:29:35;18.42;;;0.77;;
74957;SDS011;63516;42.624;26.276;2022-09-21T13:34:38;8.07;;;0.90;;
74957;SDS011;63516;42.624;26.276;2022-09-21T13:39:43;6.63;;;0.73;;
74957;SDS011;63516;42.624;26.276;2022-09-21T13:44:55;7.70;;;0.70;;
74957;SDS011;63516;42.624;26.276;2022-09-21T13:47:30;5.13;;;0.60;;
74957;SDS011;63516;42.624;26.276;2022-09-21T13:53:15;3.38;;;0.80;;
74957;SDS011;63516;42.624;26.276;2022-09-21T13:55:49;6.55;;;0.77;;
74957;SDS011;63516;42.624;26.276;2022-09-21T13:58:29;6.60;;;0.60;;
74957;SDS011;63516;42.624;26.276;2022-09-21T14:01:03;6.30;;;0.45;;
74957;SDS011;63516;42.624;26.276;2022-09-21T14:03:59;28.10;;;2.08;;
74957;SDS011;63516;42.624;26.276;2022-09-21T14:06:32;7.25;;;0.70;;
74957;SDS011;63516;42.624;26.276;2022-09-21T14:09:02;4.55;;;0.50;;
74957;SDS011;63516;42.624;26.276;2022-09-21T14:24:36;9.45;;;0.90;;
74957;SDS011;63516;42.624;26.276;2022-09-21T14:27:27;10.93;;;0.80;;
74957;SDS011;63516;42.624;26.276;2022-09-21T14:32:43;7.35;;;1.10;;
74957;SDS011;63516;42.624;26.276;2022-09-21T14:35:19;9.40;;;0.90;;
74957;SDS011;63516;42.624;26.276;2022-09-21T14:37:50;4.68;;;0.73;;
74957;SDS011;63516;42.624;26.276;2022-09-21T14:40:23;0.93;;;0.30;;
74957;SDS011;63516;42.624;26.276;2022-09-21T14:42:52;5.43;;;0.60;;
74957;SDS011;63516;42.624;26.276;2022-09-21T14:45:24;6.32;;;0.68;;
74957;SDS011;63516;42.624;26.276;2022-09-21T14:48:16;2.47;;;0.60;;
74957;SDS011;63516;42.624;26.276;2022-09-21T14:51:13;1.45;;;0.73;;
74957;SDS011;63516;42.624;26.276;2022-09-21T15:08:12;3.60;;;0.50;;
74957;SDS011;63516;42.624;26.276;2022-09-21T15:11:07;9.80;;;0.70;;
74957;SDS011;63516;42.624;26.276;2022-09-21T15:13:49;8.25;;;0.60;;
74957;SDS011;63516;42.624;26.276;2022-09-21T15:16:42;3.78;;;0.38;;
74957;SDS011;63516;42.624;26.276;2022-09-21T15:19:13;21.27;;;2.17;;
74957;SDS011;63516;42.624;26.276;2022-09-21T15:21:45;15.27;;;1.27;;
74957;SDS011;63516;42.624;26.276;2022-09-21T15:24:47;6.90;;;1.42;;
74957;SDS011;63516;42.624;26.276;2022-09-21T15:27:17;1.52;;;0.28;;
74957;SDS011;63516;42.624;26.276;2022-09-21T15:29:45;5.55;;;0.60;;
74957;SDS011;63516;42.624;26.276;2022-09-21T15:32:23;3.60;;;0.50;;
74957;SDS011;63516;42.624;26.276;2022-09-21T15:34:57;1.48;;;0.40;;
74957;SDS011;63516;42.624;26.276;2022-09-21T15:37:27;2.13;;;0.30;;
74957;SDS011;63516;42.624;26.276;2022-09-21T15:40:00;3.33;;;0.68;;
74957;SDS011;63516;42.624;26.276;2022-09-21T15:42:28;5.72;;;0.52;;
74957;SDS011;63516;42.624;26.276;2022-09-21T15:45:15;1.75;;;0.43;;
74957;SDS011;63516;42.624;26.276;2022-09-21T15:47:43;1.13;;;0.40;;
74957;SDS011;63516;42.624;26.276;2022-09-21T15:50:11;1.98;;;0.65;;
74957;SDS011;63516;42.624;26.276;2022-09-21T15:52:40;7.68;;;0.70;;
74957;SDS011;63516;42.624;26.276;2022-09-21T15:55:18;6.63;;;0.50;;
74957;SDS011;63516;42.624;26.276;2022-09-21T15:57:53;5.63;;;0.60;;
74957;SDS011;63516;42.624;26.276;2022-09-21T16:00:25;5.88;;;1.05;;
74957;SDS011;63516;42.624;26.276;2022-09-21T16:03:06;17.42;;;2.17;;
74957;SDS011;63516;42.624;26.276;2022-09-21T16:05:46;13.25;;;1.42;;
74957;SDS011;63516;42.624;26.276;2022-09-21T16:08:17;14.75;;;1.92;;
74957;SDS011;63516;42.624;26.276;2022-09-21T16:10:44;11.68;;;1.20;;
74957;SDS011;63516;42.624;26.276;2022-09-21T16:13:16;4.65;;;0.80;;
74957;SDS011;63516;42.624;26.276;2022-09-21T16:16:11;4.50;;;0.77;;
74957;SDS011;63516;42.624;26.276;2022-09-21T16:18:50;3.90;;;0.85;;
74957;SDS011;63516;42.624;26.276;2022-09-21T16:24:06;11.90;;;5.38;;
74957;SDS011;63516;42.624;26.276;2022-09-21T16:26:36;8.00;;;2.00;;
74957;SDS011;63516;42.624;26.276;2022-09-21T16:31:34;4.57;;;0.75;;
74957;SDS011;63516;42.624;26.276;2022-09-21T16:36:52;3.63;;;0.40;;
74957;SDS011;63516;42.624;26.276;2022-09-21T16:39:20;11.30;;;0.57;;
74957;SDS011;63516;42.624;26.276;2022-09-21T16:44:20;1.05;;;0.60;;
74957;SDS011;63516;42.624;26.276;2022-09-21T16:46:52;3.78;;;0.80;;
74957;SDS011;63516;42.624;26.276;2022-09-21T16:49:22;5.78;;;0.90;;
74957;SDS011;63516;42.624;26.276;2022-09-21T16:51:56;15.82;;;1.95;;
74957;SDS011;63516;42.624;26.276;2022-09-21T16:54:23;11.40;;;1.17;;
74957;SDS011;63516;42.624;26.276;2022-09-21T16:56:56;2.78;;;0.65;;
74957;SDS011;63516;42.624;26.276;2022-09-21T16:59:25;6.68;;;0.90;;
74957;SDS011;63516;42.624;26.276;2022-09-21T17:01:53;5.18;;;0.60;;
74957;SDS011;63516;42.624;26.276;2022-09-21T17:04:26;3.53;;;0.63;;
74957;SDS011;63516;42.624;26.276;2022-09-21T17:06:55;2.60;;;0.73;;
74957;SDS011;63516;42.624;26.276;2022-09-21T17:09:25;7.95;;;0.90;;
74957;SDS011;63516;42.624;26.276;2022-09-21T17:11:55;4.80;;;0.68;;
74957;SDS011;63516;42.624;26.276;2022-09-21T17:14:30;2.17;;;0.60;;
74957;SDS011;63516;42.624;26.276;2022-09-21T17:17:23;4.20;;;0.75;;
74957;SDS011;63516;42.624;26.276;2022-09-21T17:19:50;5.18;;;0.70;;
74957;SDS011;63516;42.624;26.276;2022-09-21T17:22:18;4.90;;;0.70;;
74957;SDS011;63516;42.624;26.276;2022-09-21T17:24:46;6.00;;;0.80;;
74957;SDS011;63516;42.624;26.276;2022-09-21T17:27:24;0.63;;;0.43;;
74957;SDS011;63516;42.624;26.276;2022-09-21T17:29:54;1.13;;;0.50;;
74957;SDS011;63516;42.624;26.276;2022-09-21T17:32:22;2.60;;;0.60;;
74957;SDS011;63516;42.624;26.276;2022-09-21T17:34:54;0.50;;;0.30;;
74957;SDS011;63516;42.624;26.276;2022-09-21T17:37:25;3.30;;;0.60;;
74957;SDS011;63516;42.624;26.276;2022-09-21T17:39:52;3.33;;;0.55;;
74957;SDS011;63516;42.624;26.276;2022-09-21T17:42:20;5.78;;;0.70;;
74957;SDS011;63516;42.624;26.276;2022-09-21T17:47:21;11.02;;;1.73;;
74957;SDS011;63516;42.624;26.276;2022-09-21T17:49:51;6.90;;;0.75;;
74957;SDS011;63516;42.624;26.276;2022-09-21T17:52:19;3.35;;;0.60;;
74957;SDS011;63516;42.624;26.276;2022-09-21T17:55:07;5.18;;;0.55;;
74957;SDS011;63516;42.624;26.276;2022-09-21T18:00:33;1.35;;;0.40;;
74957;SDS011;63516;42.624;26.276;2022-09-21T18:03:16;9.05;;;0.73;;
74957;SDS011;63516;42.624;26.276;2022-09-21T18:05:48;2.88;;;0.38;;
74957;SDS011;63516;42.624;26.276;2022-09-21T18:08:16;19.98;;;1.27;;
74957;SDS011;63516;42.624;26.276;2022-09-21T18:10:47;10.30;;;0.73;;
74957;SDS011;63516;42.624;26.276;2022-09-21T18:13:46;0.60;;;0.35;;
74957;SDS011;63516;42.624;26.276;2022-09-21T18:16:26;2.28;;;0.50;;
74957;SDS011;63516;42.624;26.276;2022-09-21T18:21:30;3.85;;;0.40;;
74957;SDS011;63516;42.624;26.276;2022-09-21T18:24:10;18.33;;;8.48;;
74957;SDS011;63516;42.624;26.276;2022-09-21T18:26:59;31.50;;;15.93;;
74957;SDS011;63516;42.624;26.276;2022-09-21T18:29:30;27.38;;;14.40;;
74957;SDS011;63516;42.624;26.276;2022-09-21T18:35:01;7.43;;;3.95;;
74957;SDS011;63516;42.624;26.276;2022-09-21T18:40:39;7.43;;;3.70;;
74957;SDS011;63516;42.624;26.276;2022-09-21T18:46:12;3.28;;;0.82;;
74957;SDS011;63516;42.624;26.276;2022-09-21T18:54:12;16.30;;;8.95;;
74957;SDS011;63516;42.624;26.276;2022-09-21T18:56:44;10.93;;;6.00;;
74957;SDS011;63516;42.624;26.276;2022-09-21T18:59:11;4.85;;;1.00;;
74957;SDS011;63516;42.624;26.276;2022-09-21T19:01:41;2.85;;;1.50;;
74957;SDS011;63516;42.624;26.276;2022-09-21T19:04:10;5.47;;;1.77;;
74957;SDS011;63516;42.624;26.276;2022-09-21T19:06:49;1.83;;;1.00;;
74957;SDS011;63516;42.624;26.276;2022-09-21T19:20:32;3.25;;;1.33;;
74957;SDS011;63516;42.624;26.276;2022-09-21T19:25:55;3.75;;;1.92;;
74957;SDS011;63516;42.624;26.276;2022-09-21T19:31:11;1.92;;;0.43;;
74957;SDS011;63516;42.624;26.276;2022-09-21T19:33:40;3.53;;;0.50;;
74957;SDS011;63516;42.624;26.276;2022-09-21T19:36:17;1.30;;;0.60;;
74957;SDS011;63516;42.624;26.276;2022-09-21T19:38:44;3.33;;;1.77;;
74957;SDS011;63516;42.624;26.276;2022-09-21T19:44:03;2.22;;;0.75;;
74957;SDS011;63516;42.624;26.276;2022-09-21T19:49:31;0.50;;;0.38;;
74957;SDS011;63516;42.624;26.276;2022-09-21T19:52:07;1.55;;;0.75;;
74957;SDS011;63516;42.624;26.276;2022-09-21T19:54:40;0.95;;;0.40;;
74957;SDS011;63516;42.624;26.276;2022-09-21T19:57:26;1.20;;;0.60;;
74957;SDS011;63516;42.624;26.276;2022-09-21T20:00:13;1.98;;;0.90;;
74957;SDS011;63516;42.624;26.276;2022-09-21T20:05:36;3.22;;;1.40;;
74957;SDS011;63516;42.624;26.276;2022-09-21T20:08:15;1.35;;;0.80;;
74957;SDS011;63516;42.624;26.276;2022-09-21T20:11:01;1.90;;;0.63;;
74957;SDS011;63516;42.624;26.276;2022-09-21T20:16:55;3.08;;;1.42;;
74957;SDS011;63516;42.624;26.276;2022-09-21T20:25:01;0.60;;;0.40;;
74957;SDS011;63516;42.624;26.276;2022-09-21T20:27:48;1.75;;;0.70;;
74957;SDS011;63516;42.624;26.276;2022-09-21T20:30:18;0.50;;;0.28;;
74957;SDS011;63516;42.624;26.276;2022-09-21T20:32:48;2.20;;;0.80;;
74957;SDS011;63516;42.624;26.276;2022-09-21T20:35:21;4.53;;;1.27;;
74957;SDS011;63516;42.624;26.276;2022-09-21T20:37:49;1.40;;;0.40;;